sensor_id;sensor_type;location;lat;lon;timestamp;temperature;humidity
45868;DHT22;31582;45.490;7.860;2023-06-05T00:01:09;17.60;99.90
45868;DHT22;31582;45.490;7.860;2023-06-05T00:03:36;17.60;99.90
45868;DHT22;31582;45.490;7.860;2023-06-05T00:06:06;17.60;99.90
45868;DHT22;31582;45.490;7.860;2023-06-05T00:08:33;17.50;99.90
45868;DHT22;31582;45.490;7.860;2023-06-05T00:11:00;17.50;99.90
45868;DHT22;31582;45.490;7.860;2023-06-05T00:13:27;17.50;99.90
45868;DHT22;31582;45.490;7.860;2023-06-05T00:15:54;17.40;99.90
45868;DHT22;31582;45.490;7.860;2023-06-05T00:18:21;17.40;99.90
45868;DHT22;31582;45.490;7.860;2023-06-05T00:20:48;17.30;99.90
45868;DHT22;31582;45.490;7.860;2023-06-05T00:23:15;17.20;99.90
45868;DHT22;31582;45.490;7.860;2023-06-05T00:25:42;17.20;99.90
45868;DHT22;31582;45.490;7.860;2023-06-05T00:28:09;17.20;99.90
45868;DHT22;31582;45.490;7.860;2023-06-05T00:30:36;17.10;99.90
45868;DHT22;31582;45.490;7.860;2023-06-05T00:33:03;17.10;99.90
45868;DHT22;31582;45.490;7.860;2023-06-05T00:35:31;17.00;99.90
45868;DHT22;31582;45.490;7.860;2023-06-05T00:37:58;17.00;99.90
45868;DHT22;31582;45.490;7.860;2023-06-05T00:40:25;16.90;99.90
45868;DHT22;31582;45.490;7.860;2023-06-05T00:42:52;16.90;99.90
45868;DHT22;31582;45.490;7.860;2023-06-05T00:45:19;16.90;99.90
45868;DHT22;31582;45.490;7.860;2023-06-05T00:47:46;16.90;99.90
45868;DHT22;31582;45.490;7.860;2023-06-05T00:50:14;16.90;99.90
45868;DHT22;31582;45.490;7.860;2023-06-05T00:52:42;16.90;99.90
45868;DHT22;31582;45.490;7.860;2023-06-05T00:55:11;16.90;99.90
45868;DHT22;31582;45.490;7.860;2023-06-05T00:57:38;16.90;99.90
45868;DHT22;31582;45.490;7.860;2023-06-05T01:00:10;16.90;99.90
45868;DHT22;31582;45.490;7.860;2023-06-05T01:02:40;16.90;99.90
45868;DHT22;31582;45.490;7.860;2023-06-05T02:43:18;16.90;99.90
45868;DHT22;31582;45.490;7.860;2023-06-05T02:45:46;16.90;99.90
45868;DHT22;31582;45.490;7.860;2023-06-05T02:48:13;16.80;99.90
45868;DHT22;31582;45.490;7.860;2023-06-05T02:50:40;16.80;99.90
45868;DHT22;31582;45.490;7.860;2023-06-05T02:53:07;16.80;99.90
45868;DHT22;31582;45.490;7.860;2023-06-05T02:55:34;16.80;99.90
45868;DHT22;31582;45.490;7.860;2023-06-05T02:58:01;16.80;99.90
45868;DHT22;31582;45.490;7.860;2023-06-05T03:00:28;16.90;99.90
45868;DHT22;31582;45.490;7.860;2023-06-05T03:02:55;16.90;99.90
45868;DHT22;31582;45.490;7.860;2023-06-05T03:05:22;16.90;99.90
45868;DHT22;31582;45.490;7.860;2023-06-05T03:07:53;16.90;99.90
45868;DHT22;31582;45.490;7.860;2023-06-05T03:10:21;16.90;99.90
45868;DHT22;31582;45.490;7.860;2023-06-05T03:12:48;16.90;99.90
45868;DHT22;31582;45.490;7.860;2023-06-05T03:15:15;16.90;99.90
45868;DHT22;31582;45.490;7.860;2023-06-05T03:17:43;16.90;99.90
45868;DHT22;31582;45.490;7.860;2023-06-05T03:20:10;16.90;99.90
45868;DHT22;31582;45.490;7.860;2023-06-05T03:22:37;16.80;99.90
45868;DHT22;31582;45.490;7.860;2023-06-05T03:25:05;16.80;99.90
45868;DHT22;31582;45.490;7.860;2023-06-05T03:27:32;16.70;99.90
45868;DHT22;31582;45.490;7.860;2023-06-05T03:29:59;16.70;99.90
45868;DHT22;31582;45.490;7.860;2023-06-05T03:32:26;16.70;99.90
45868;DHT22;31582;45.490;7.860;2023-06-05T03:34:53;16.60;99.90
45868;DHT22;31582;45.490;7.860;2023-06-05T03:37:20;16.60;99.90
45868;DHT22;31582;45.490;7.860;2023-06-05T03:39:46;16.60;99.90
45868;DHT22;31582;45.490;7.860;2023-06-05T03:42:13;16.50;99.90
45868;DHT22;31582;45.490;7.860;2023-06-05T03:44:40;16.50;99.90
45868;DHT22;31582;45.490;7.860;2023-06-05T03:47:07;16.50;99.90
45868;DHT22;31582;45.490;7.860;2023-06-05T03:49:34;16.50;99.90
45868;DHT22;31582;45.490;7.860;2023-06-05T03:52:02;16.50;99.90
45868;DHT22;31582;45.490;7.860;2023-06-05T03:54:30;16.50;99.90
45868;DHT22;31582;45.490;7.860;2023-06-05T03:57:00;16.50;99.90
45868;DHT22;31582;45.490;7.860;2023-06-05T03:59:27;16.40;99.90
45868;DHT22;31582;45.490;7.860;2023-06-05T04:01:56;16.50;99.90
45868;DHT22;31582;45.490;7.860;2023-06-05T04:04:23;16.40;99.90
45868;DHT22;31582;45.490;7.860;2023-06-05T04:06:51;16.40;99.90
45868;DHT22;31582;45.490;7.860;2023-06-05T04:09:18;16.30;99.90
45868;DHT22;31582;45.490;7.860;2023-06-05T04:11:45;16.30;99.90
45868;DHT22;31582;45.490;7.860;2023-06-05T04:14:12;16.40;99.90
45868;DHT22;31582;45.490;7.860;2023-06-05T04:16:40;16.40;99.90
45868;DHT22;31582;45.490;7.860;2023-06-05T04:19:11;16.40;99.90
45868;DHT22;31582;45.490;7.860;2023-06-05T04:21:38;16.30;99.90
45868;DHT22;31582;45.490;7.860;2023-06-05T04:24:06;16.40;99.90
45868;DHT22;31582;45.490;7.860;2023-06-05T04:26:36;16.40;99.90
45868;DHT22;31582;45.490;7.860;2023-06-05T04:29:04;16.40;99.90
45868;DHT22;31582;45.490;7.860;2023-06-05T04:31:45;16.40;99.90
45868;DHT22;31582;45.490;7.860;2023-06-05T04:34:12;16.40;99.90
45868;DHT22;31582;45.490;7.860;2023-06-05T04:36:42;16.30;99.90
45868;DHT22;31582;45.490;7.860;2023-06-05T04:39:09;16.30;99.90
45868;DHT22;31582;45.490;7.860;2023-06-05T04:41:42;16.30;99.90
45868;DHT22;31582;45.490;7.860;2023-06-05T04:44:28;16.40;99.90
45868;DHT22;31582;45.490;7.860;2023-06-05T04:46:55;16.30;99.90
45868;DHT22;31582;45.490;7.860;2023-06-05T04:49:22;16.30;99.90
45868;DHT22;31582;45.490;7.860;2023-06-05T04:51:49;16.30;99.90
45868;DHT22;31582;45.490;7.860;2023-06-05T04:54:16;16.20;99.90
45868;DHT22;31582;45.490;7.860;2023-06-05T04:56:43;16.20;99.90
45868;DHT22;31582;45.490;7.860;2023-06-05T04:59:12;16.20;99.90
45868;DHT22;31582;45.490;7.860;2023-06-05T05:01:39;16.20;99.90
45868;DHT22;31582;45.490;7.860;2023-06-05T05:04:07;16.30;99.90
45868;DHT22;31582;45.490;7.860;2023-06-05T05:06:35;16.30;99.90
45868;DHT22;31582;45.490;7.860;2023-06-05T05:09:02;16.20;99.90
45868;DHT22;31582;45.490;7.860;2023-06-05T05:11:31;16.30;99.90
45868;DHT22;31582;45.490;7.860;2023-06-05T05:13:58;16.30;99.90
45868;DHT22;31582;45.490;7.860;2023-06-05T05:16:25;16.30;99.90
45868;DHT22;31582;45.490;7.860;2023-06-05T05:18:51;16.30;99.90
45868;DHT22;31582;45.490;7.860;2023-06-05T05:21:18;16.40;99.90
45868;DHT22;31582;45.490;7.860;2023-06-05T05:23:45;16.40;99.90
45868;DHT22;31582;45.490;7.860;2023-06-05T05:26:12;16.40;99.90
45868;DHT22;31582;45.490;7.860;2023-06-05T05:28:39;16.40;99.90
45868;DHT22;31582;45.490;7.860;2023-06-05T05:31:06;16.50;99.90
45868;DHT22;31582;45.490;7.860;2023-06-05T05:33:33;16.60;99.90
45868;DHT22;31582;45.490;7.860;2023-06-05T05:36:00;16.60;99.90
45868;DHT22;31582;45.490;7.860;2023-06-05T05:38:27;16.70;99.90
45868;DHT22;31582;45.490;7.860;2023-06-05T05:40:54;16.60;99.90
45868;DHT22;31582;45.490;7.860;2023-06-05T05:43:21;16.70;99.90
45868;DHT22;31582;45.490;7.860;2023-06-05T05:45:48;16.70;99.90
45868;DHT22;31582;45.490;7.860;2023-06-05T05:48:15;16.70;99.90
45868;DHT22;31582;45.490;7.860;2023-06-05T05:50:42;16.80;99.90
45868;DHT22;31582;45.490;7.860;2023-06-05T05:53:09;16.90;99.90
45868;DHT22;31582;45.490;7.860;2023-06-05T05:55:36;16.90;99.90
45868;DHT22;31582;45.490;7.860;2023-06-05T05:58:03;17.00;99.90
45868;DHT22;31582;45.490;7.860;2023-06-05T06:00:30;17.00;99.90
45868;DHT22;31582;45.490;7.860;2023-06-05T06:02:56;17.00;99.90
45868;DHT22;31582;45.490;7.860;2023-06-05T06:05:24;17.10;99.90
45868;DHT22;31582;45.490;7.860;2023-06-05T06:07:51;17.10;99.90
45868;DHT22;31582;45.490;7.860;2023-06-05T06:10:18;17.10;99.90
45868;DHT22;31582;45.490;7.860;2023-06-05T06:12:46;17.10;99.90
45868;DHT22;31582;45.490;7.860;2023-06-05T06:15:13;17.20;99.90
45868;DHT22;31582;45.490;7.860;2023-06-05T06:17:40;17.20;99.90
45868;DHT22;31582;45.490;7.860;2023-06-05T06:20:08;17.20;99.90
45868;DHT22;31582;45.490;7.860;2023-06-05T06:22:39;17.20;99.90
45868;DHT22;31582;45.490;7.860;2023-06-05T06:25:08;17.30;99.90
45868;DHT22;31582;45.490;7.860;2023-06-05T06:27:36;17.30;99.90
45868;DHT22;31582;45.490;7.860;2023-06-05T06:30:04;17.30;99.90
45868;DHT22;31582;45.490;7.860;2023-06-05T06:32:32;17.40;99.90
45868;DHT22;31582;45.490;7.860;2023-06-05T06:34:59;17.40;99.90
45868;DHT22;31582;45.490;7.860;2023-06-05T06:37:26;17.40;99.90
45868;DHT22;31582;45.490;7.860;2023-06-05T06:39:53;17.40;99.90
45868;DHT22;31582;45.490;7.860;2023-06-05T06:42:20;17.50;99.90
45868;DHT22;31582;45.490;7.860;2023-06-05T06:44:47;17.50;99.90
45868;DHT22;31582;45.490;7.860;2023-06-05T06:47:14;17.60;99.90
45868;DHT22;31582;45.490;7.860;2023-06-05T06:49:41;17.70;99.90
45868;DHT22;31582;45.490;7.860;2023-06-05T06:52:08;17.80;99.90
45868;DHT22;31582;45.490;7.860;2023-06-05T06:54:35;17.90;99.90
45868;DHT22;31582;45.490;7.860;2023-06-05T06:57:04;18.00;99.90
45868;DHT22;31582;45.490;7.860;2023-06-05T06:59:31;18.10;99.90
45868;DHT22;31582;45.490;7.860;2023-06-05T07:02:31;18.20;99.90
45868;DHT22;31582;45.490;7.860;2023-06-05T07:04:58;18.30;99.90
45868;DHT22;31582;45.490;7.860;2023-06-05T07:07:25;18.40;99.90
45868;DHT22;31582;45.490;7.860;2023-06-05T07:09:52;18.60;99.90
45868;DHT22;31582;45.490;7.860;2023-06-05T07:12:19;18.70;99.90
45868;DHT22;31582;45.490;7.860;2023-06-05T07:14:49;18.90;99.90
45868;DHT22;31582;45.490;7.860;2023-06-05T07:17:17;19.00;99.90
45868;DHT22;31582;45.490;7.860;2023-06-05T07:19:44;19.10;99.90
45868;DHT22;31582;45.490;7.860;2023-06-05T07:22:11;19.20;99.90
45868;DHT22;31582;45.490;7.860;2023-06-05T07:24:37;19.40;99.90
45868;DHT22;31582;45.490;7.860;2023-06-05T07:27:05;19.50;99.90
45868;DHT22;31582;45.490;7.860;2023-06-05T07:29:32;19.80;99.90
45868;DHT22;31582;45.490;7.860;2023-06-05T07:31:59;20.00;99.90
45868;DHT22;31582;45.490;7.860;2023-06-05T07:34:27;20.10;99.90
45868;DHT22;31582;45.490;7.860;2023-06-05T07:36:54;20.20;99.90
45868;DHT22;31582;45.490;7.860;2023-06-05T07:39:23;20.30;99.90
45868;DHT22;31582;45.490;7.860;2023-06-05T07:41:50;20.40;99.90
45868;DHT22;31582;45.490;7.860;2023-06-05T07:44:19;20.50;99.90
45868;DHT22;31582;45.490;7.860;2023-06-05T07:46:48;20.80;99.90
45868;DHT22;31582;45.490;7.860;2023-06-05T07:49:16;21.00;99.90
45868;DHT22;31582;45.490;7.860;2023-06-05T07:51:44;21.20;99.90
45868;DHT22;31582;45.490;7.860;2023-06-05T07:54:14;21.30;99.90
45868;DHT22;31582;45.490;7.860;2023-06-05T07:56:46;21.30;97.30
45868;DHT22;31582;45.490;7.860;2023-06-05T07:59:16;21.40;94.40
45868;DHT22;31582;45.490;7.860;2023-06-05T08:01:43;21.50;94.00
45868;DHT22;31582;45.490;7.860;2023-06-05T08:04:12;21.60;94.40
45868;DHT22;31582;45.490;7.860;2023-06-05T08:06:39;21.60;93.60
45868;DHT22;31582;45.490;7.860;2023-06-05T08:09:07;21.70;93.70
45868;DHT22;31582;45.490;7.860;2023-06-05T08:11:38;21.90;93.60
45868;DHT22;31582;45.490;7.860;2023-06-05T08:14:05;22.00;92.00
45868;DHT22;31582;45.490;7.860;2023-06-05T08:16:33;22.20;91.50
45868;DHT22;31582;45.490;7.860;2023-06-05T08:19:00;22.20;89.40
45868;DHT22;31582;45.490;7.860;2023-06-05T08:21:28;22.40;89.30
45868;DHT22;31582;45.490;7.860;2023-06-05T08:23:55;22.60;85.10
45868;DHT22;31582;45.490;7.860;2023-06-05T08:26:22;22.60;74.10
45868;DHT22;31582;45.490;7.860;2023-06-05T08:28:49;22.50;72.20
45868;DHT22;31582;45.490;7.860;2023-06-05T08:31:16;22.50;64.10
45868;DHT22;31582;45.490;7.860;2023-06-05T08:33:43;22.50;68.90
45868;DHT22;31582;45.490;7.860;2023-06-05T08:36:10;22.40;63.90
45868;DHT22;31582;45.490;7.860;2023-06-05T08:38:37;22.30;66.50
45868;DHT22;31582;45.490;7.860;2023-06-05T08:41:08;22.50;70.20
45868;DHT22;31582;45.490;7.860;2023-06-05T08:43:38;22.50;67.60
45868;DHT22;31582;45.490;7.860;2023-06-05T08:46:06;22.60;68.80
45868;DHT22;31582;45.490;7.860;2023-06-05T08:48:41;22.70;63.60
45868;DHT22;31582;45.490;7.860;2023-06-05T08:51:16;22.60;65.70
45868;DHT22;31582;45.490;7.860;2023-06-05T08:54:04;22.70;64.70
45868;DHT22;31582;45.490;7.860;2023-06-05T08:56:34;22.70;66.80
45868;DHT22;31582;45.490;7.860;2023-06-05T08:59:04;22.90;70.20
45868;DHT22;31582;45.490;7.860;2023-06-05T09:01:32;23.00;67.20
45868;DHT22;31582;45.490;7.860;2023-06-05T09:03:59;23.00;67.00
45868;DHT22;31582;45.490;7.860;2023-06-05T09:06:26;23.00;66.60
45868;DHT22;31582;45.490;7.860;2023-06-05T09:08:54;23.10;67.00
45868;DHT22;31582;45.490;7.860;2023-06-05T09:11:27;23.30;66.80
45868;DHT22;31582;45.490;7.860;2023-06-05T09:13:59;23.40;65.10
45868;DHT22;31582;45.490;7.860;2023-06-05T09:16:41;23.50;65.50
45868;DHT22;31582;45.490;7.860;2023-06-05T09:19:12;23.50;62.00
45868;DHT22;31582;45.490;7.860;2023-06-05T09:21:39;23.40;63.50
45868;DHT22;31582;45.490;7.860;2023-06-05T09:24:14;23.40;61.90
45868;DHT22;31582;45.490;7.860;2023-06-05T09:27:10;23.30;62.60
45868;DHT22;31582;45.490;7.860;2023-06-05T09:29:39;23.20;66.40
45868;DHT22;31582;45.490;7.860;2023-06-05T09:32:16;23.10;61.80
45868;DHT22;31582;45.490;7.860;2023-06-05T09:34:45;22.90;62.40
45868;DHT22;31582;45.490;7.860;2023-06-05T09:37:13;22.80;61.70
45868;DHT22;31582;45.490;7.860;2023-06-05T09:39:41;22.80;67.60
45868;DHT22;31582;45.490;7.860;2023-06-05T09:42:11;22.80;68.30
45868;DHT22;31582;45.490;7.860;2023-06-05T09:44:38;22.80;66.10
45868;DHT22;31582;45.490;7.860;2023-06-05T09:47:07;22.80;65.10
45868;DHT22;31582;45.490;7.860;2023-06-05T09:52:10;22.90;67.00
45868;DHT22;31582;45.490;7.860;2023-06-05T09:54:42;22.90;64.40
45868;DHT22;31582;45.490;7.860;2023-06-05T09:57:12;22.90;65.40
45868;DHT22;31582;45.490;7.860;2023-06-05T10:02:09;23.00;64.90
45868;DHT22;31582;45.490;7.860;2023-06-05T10:04:43;23.00;63.50
45868;DHT22;31582;45.490;7.860;2023-06-05T10:07:13;22.90;64.30
45868;DHT22;31582;45.490;7.860;2023-06-05T10:09:40;22.90;63.30
45868;DHT22;31582;45.490;7.860;2023-06-05T10:12:08;22.90;61.90
45868;DHT22;31582;45.490;7.860;2023-06-05T10:14:36;22.80;65.70
45868;DHT22;31582;45.490;7.860;2023-06-05T10:17:03;22.90;66.60
45868;DHT22;31582;45.490;7.860;2023-06-05T10:19:30;22.90;67.80
45868;DHT22;31582;45.490;7.860;2023-06-05T10:21:57;22.90;65.50
45868;DHT22;31582;45.490;7.860;2023-06-05T10:24:39;22.90;66.00
45868;DHT22;31582;45.490;7.860;2023-06-05T10:38:26;22.70;67.20
45868;DHT22;31582;45.490;7.860;2023-06-05T10:40:55;22.70;66.80
45868;DHT22;31582;45.490;7.860;2023-06-05T10:43:48;22.70;67.20
45868;DHT22;31582;45.490;7.860;2023-06-05T10:46:30;22.70;67.80
45868;DHT22;31582;45.490;7.860;2023-06-05T10:51:48;22.60;66.20
45868;DHT22;31582;45.490;7.860;2023-06-05T10:59:37;22.40;68.20
45868;DHT22;31582;45.490;7.860;2023-06-05T11:07:19;22.40;68.00
45868;DHT22;31582;45.490;7.860;2023-06-05T11:15:06;22.40;68.20
45868;DHT22;31582;45.490;7.860;2023-06-05T11:17:38;22.30;69.20
45868;DHT22;31582;45.490;7.860;2023-06-05T11:20:07;22.40;70.40
45868;DHT22;31582;45.490;7.860;2023-06-05T11:23:06;22.50;70.70
45868;DHT22;31582;45.490;7.860;2023-06-05T11:25:33;22.60;66.40
45868;DHT22;31582;45.490;7.860;2023-06-05T11:28:02;22.60;66.50
45868;DHT22;31582;45.490;7.860;2023-06-05T11:30:33;22.60;65.40
45868;DHT22;31582;45.490;7.860;2023-06-05T11:33:16;22.60;68.10
45868;DHT22;31582;45.490;7.860;2023-06-05T11:35:47;22.80;69.30
45868;DHT22;31582;45.490;7.860;2023-06-05T11:38:17;22.80;68.10
45868;DHT22;31582;45.490;7.860;2023-06-05T11:40:48;23.00;66.90
45868;DHT22;31582;45.490;7.860;2023-06-05T11:43:15;23.10;65.00
45868;DHT22;31582;45.490;7.860;2023-06-05T11:45:56;23.20;63.30
45868;DHT22;31582;45.490;7.860;2023-06-05T11:48:24;23.30;65.10
45868;DHT22;31582;45.490;7.860;2023-06-05T11:50:54;23.50;63.30
45868;DHT22;31582;45.490;7.860;2023-06-05T11:53:22;23.50;60.10
45868;DHT22;31582;45.490;7.860;2023-06-05T11:55:49;23.40;61.50
45868;DHT22;31582;45.490;7.860;2023-06-05T11:58:28;23.30;62.00
45868;DHT22;31582;45.490;7.860;2023-06-05T12:01:17;23.30;61.70
45868;DHT22;31582;45.490;7.860;2023-06-05T12:04:03;23.50;66.80
45868;DHT22;31582;45.490;7.860;2023-06-05T12:06:31;23.90;68.70
45868;DHT22;31582;45.490;7.860;2023-06-05T12:09:08;24.20;59.80
45868;DHT22;31582;45.490;7.860;2023-06-05T12:11:38;24.40;61.90
45868;DHT22;31582;45.490;7.860;2023-06-05T12:14:05;24.60;60.10
45868;DHT22;31582;45.490;7.860;2023-06-05T12:16:34;24.70;59.70
45868;DHT22;31582;45.490;7.860;2023-06-05T12:19:12;25.00;59.10
45868;DHT22;31582;45.490;7.860;2023-06-05T12:21:43;25.10;58.00
45868;DHT22;31582;45.490;7.860;2023-06-05T12:24:10;24.90;55.30
45868;DHT22;31582;45.490;7.860;2023-06-05T12:27:01;24.60;56.80
45868;DHT22;31582;45.490;7.860;2023-06-05T12:29:30;24.30;57.90
45868;DHT22;31582;45.490;7.860;2023-06-05T12:32:00;24.10;59.00
45868;DHT22;31582;45.490;7.860;2023-06-05T12:34:41;24.00;59.40
45868;DHT22;31582;45.490;7.860;2023-06-05T12:37:30;23.80;59.60
45868;DHT22;31582;45.490;7.860;2023-06-05T12:40:07;23.80;60.50
45868;DHT22;31582;45.490;7.860;2023-06-05T12:42:39;23.70;60.30
45868;DHT22;31582;45.490;7.860;2023-06-05T12:45:08;23.70;61.60
45868;DHT22;31582;45.490;7.860;2023-06-05T12:47:36;23.70;59.60
45868;DHT22;31582;45.490;7.860;2023-06-05T12:50:05;23.50;62.00
45868;DHT22;31582;45.490;7.860;2023-06-05T12:52:39;23.40;63.80
45868;DHT22;31582;45.490;7.860;2023-06-05T12:55:07;23.50;67.50
45868;DHT22;31582;45.490;7.860;2023-06-05T12:57:35;23.50;67.10
45868;DHT22;31582;45.490;7.860;2023-06-05T13:00:04;23.70;65.30
45868;DHT22;31582;45.490;7.860;2023-06-05T13:02:44;23.70;61.30
45868;DHT22;31582;45.490;7.860;2023-06-05T13:05:15;23.70;62.50
45868;DHT22;31582;45.490;7.860;2023-06-05T13:07:43;23.70;64.20
45868;DHT22;31582;45.490;7.860;2023-06-05T13:10:10;23.70;62.10
45868;DHT22;31582;45.490;7.860;2023-06-05T13:12:39;23.70;62.80
45868;DHT22;31582;45.490;7.860;2023-06-05T13:15:07;23.50;62.70
45868;DHT22;31582;45.490;7.860;2023-06-05T13:17:34;23.40;63.60
45868;DHT22;31582;45.490;7.860;2023-06-05T13:20:03;23.30;66.60
45868;DHT22;31582;45.490;7.860;2023-06-05T13:22:34;23.20;66.80
45868;DHT22;31582;45.490;7.860;2023-06-05T13:25:02;23.10;72.60
45868;DHT22;31582;45.490;7.860;2023-06-05T13:27:29;23.00;79.30
45868;DHT22;31582;45.490;7.860;2023-06-05T13:29:56;22.90;82.80
45868;DHT22;31582;45.490;7.860;2023-06-05T13:32:23;22.90;82.30
45868;DHT22;31582;45.490;7.860;2023-06-05T13:34:50;22.80;85.20
45868;DHT22;31582;45.490;7.860;2023-06-05T13:37:17;22.70;88.90
45868;DHT22;31582;45.490;7.860;2023-06-05T13:39:45;22.60;91.80
45868;DHT22;31582;45.490;7.860;2023-06-05T13:42:12;22.40;91.80
45868;DHT22;31582;45.490;7.860;2023-06-05T13:44:39;22.30;91.00
45868;DHT22;31582;45.490;7.860;2023-06-05T13:47:06;22.30;90.80
45868;DHT22;31582;45.490;7.860;2023-06-05T13:49:35;22.20;89.20
45868;DHT22;31582;45.490;7.860;2023-06-05T13:52:02;22.20;87.10
45868;DHT22;31582;45.490;7.860;2023-06-05T13:54:29;22.10;93.10
45868;DHT22;31582;45.490;7.860;2023-06-05T13:56:56;22.10;92.80
45868;DHT22;31582;45.490;7.860;2023-06-05T13:59:25;22.00;92.20
45868;DHT22;31582;45.490;7.860;2023-06-05T14:01:53;22.00;92.20
45868;DHT22;31582;45.490;7.860;2023-06-05T14:04:20;22.10;91.00
45868;DHT22;31582;45.490;7.860;2023-06-05T14:06:47;22.20;91.30
45868;DHT22;31582;45.490;7.860;2023-06-05T14:09:14;22.30;90.10
45868;DHT22;31582;45.490;7.860;2023-06-05T14:11:41;22.50;85.80
45868;DHT22;31582;45.490;7.860;2023-06-05T14:14:11;22.90;83.60
45868;DHT22;31582;45.490;7.860;2023-06-05T14:16:38;23.30;77.60
45868;DHT22;31582;45.490;7.860;2023-06-05T14:19:05;23.70;73.70
45868;DHT22;31582;45.490;7.860;2023-06-05T14:21:32;24.20;70.10
45868;DHT22;31582;45.490;7.860;2023-06-05T14:23:59;24.70;69.50
45868;DHT22;31582;45.490;7.860;2023-06-05T14:26:26;25.00;65.10
45868;DHT22;31582;45.490;7.860;2023-06-05T14:28:56;25.40;62.60
45868;DHT22;31582;45.490;7.860;2023-06-05T14:31:23;25.60;60.00
45868;DHT22;31582;45.490;7.860;2023-06-05T14:33:52;25.90;58.80
45868;DHT22;31582;45.490;7.860;2023-06-05T14:36:19;26.20;56.70
45868;DHT22;31582;45.490;7.860;2023-06-05T14:38:46;26.30;55.70
45868;DHT22;31582;45.490;7.860;2023-06-05T14:41:13;26.60;53.10
45868;DHT22;31582;45.490;7.860;2023-06-05T14:43:39;26.70;54.30
45868;DHT22;31582;45.490;7.860;2023-06-05T14:46:06;27.00;54.00
45868;DHT22;31582;45.490;7.860;2023-06-05T14:48:34;27.00;54.50
45868;DHT22;31582;45.490;7.860;2023-06-05T14:51:01;27.00;53.80
45868;DHT22;31582;45.490;7.860;2023-06-05T14:53:28;27.20;52.80
45868;DHT22;31582;45.490;7.860;2023-06-05T14:55:55;27.40;53.20
45868;DHT22;31582;45.490;7.860;2023-06-05T14:58:22;27.30;51.50
45868;DHT22;31582;45.490;7.860;2023-06-05T15:00:49;27.20;52.10
45868;DHT22;31582;45.490;7.860;2023-06-05T15:03:22;27.30;52.90
45868;DHT22;31582;45.490;7.860;2023-06-05T15:05:49;27.60;50.50
45868;DHT22;31582;45.490;7.860;2023-06-05T15:08:16;27.60;50.60
45868;DHT22;31582;45.490;7.860;2023-06-05T15:10:43;27.60;51.30
45868;DHT22;31582;45.490;7.860;2023-06-05T15:13:10;27.90;51.60
45868;DHT22;31582;45.490;7.860;2023-06-05T15:15:37;28.00;52.00
45868;DHT22;31582;45.490;7.860;2023-06-05T15:18:04;27.90;50.70
45868;DHT22;31582;45.490;7.860;2023-06-05T15:20:31;27.80;50.20
45868;DHT22;31582;45.490;7.860;2023-06-05T15:22:58;27.60;52.70
45868;DHT22;31582;45.490;7.860;2023-06-05T15:25:42;27.50;54.00
45868;DHT22;31582;45.490;7.860;2023-06-05T15:28:09;27.50;54.10
45868;DHT22;31582;45.490;7.860;2023-06-05T15:30:36;27.60;56.20
45868;DHT22;31582;45.490;7.860;2023-06-05T15:33:03;27.60;52.40
45868;DHT22;31582;45.490;7.860;2023-06-05T15:35:30;27.40;53.20
45868;DHT22;31582;45.490;7.860;2023-06-05T15:37:57;27.30;53.50
45868;DHT22;31582;45.490;7.860;2023-06-05T15:40:24;27.20;54.10
45868;DHT22;31582;45.490;7.860;2023-06-05T15:43:08;27.20;54.70
45868;DHT22;31582;45.490;7.860;2023-06-05T15:45:35;27.30;54.30
45868;DHT22;31582;45.490;7.860;2023-06-05T15:48:03;27.30;53.90
45868;DHT22;31582;45.490;7.860;2023-06-05T15:50:31;27.10;52.00
45868;DHT22;31582;45.490;7.860;2023-06-05T15:52:58;26.80;53.70
45868;DHT22;31582;45.490;7.860;2023-06-05T15:55:26;26.60;54.90
45868;DHT22;31582;45.490;7.860;2023-06-05T15:57:55;26.30;54.10
45868;DHT22;31582;45.490;7.860;2023-06-05T16:00:22;26.00;56.00
45868;DHT22;31582;45.490;7.860;2023-06-05T16:02:53;25.80;54.50
45868;DHT22;31582;45.490;7.860;2023-06-05T16:05:20;25.60;56.40
45868;DHT22;31582;45.490;7.860;2023-06-05T16:07:48;25.50;56.50
45868;DHT22;31582;45.490;7.860;2023-06-05T16:10:16;25.50;56.00
45868;DHT22;31582;45.490;7.860;2023-06-05T16:12:43;25.30;57.30
45868;DHT22;31582;45.490;7.860;2023-06-05T16:15:10;25.20;58.50
45868;DHT22;31582;45.490;7.860;2023-06-05T16:17:41;25.10;58.30
45868;DHT22;31582;45.490;7.860;2023-06-05T16:20:09;24.90;57.40
45868;DHT22;31582;45.490;7.860;2023-06-05T16:22:36;24.70;58.10
45868;DHT22;31582;45.490;7.860;2023-06-05T16:25:03;24.50;57.60
45868;DHT22;31582;45.490;7.860;2023-06-05T16:27:30;24.30;59.00
45868;DHT22;31582;45.490;7.860;2023-06-05T16:29:57;24.10;59.90
45868;DHT22;31582;45.490;7.860;2023-06-05T16:32:24;24.00;61.30
45868;DHT22;31582;45.490;7.860;2023-06-05T16:34:52;23.90;60.20
45868;DHT22;31582;45.490;7.860;2023-06-05T16:37:20;23.80;61.00
45868;DHT22;31582;45.490;7.860;2023-06-05T16:39:47;23.70;63.20
45868;DHT22;31582;45.490;7.860;2023-06-05T16:42:16;23.70;63.30
45868;DHT22;31582;45.490;7.860;2023-06-05T16:44:42;23.60;66.80
45868;DHT22;31582;45.490;7.860;2023-06-05T16:47:09;23.60;63.60
45868;DHT22;31582;45.490;7.860;2023-06-05T16:49:37;23.60;63.20
45868;DHT22;31582;45.490;7.860;2023-06-05T16:52:04;23.50;64.90
45868;DHT22;31582;45.490;7.860;2023-06-05T16:54:31;23.50;64.60
45868;DHT22;31582;45.490;7.860;2023-06-05T16:56:58;23.50;62.20
45868;DHT22;31582;45.490;7.860;2023-06-05T16:59:25;23.50;63.60
45868;DHT22;31582;45.490;7.860;2023-06-05T17:01:52;23.40;64.10
45868;DHT22;31582;45.490;7.860;2023-06-05T17:04:18;23.30;65.10
45868;DHT22;31582;45.490;7.860;2023-06-05T17:06:46;23.30;68.20
45868;DHT22;31582;45.490;7.860;2023-06-05T17:09:15;23.20;68.60
45868;DHT22;31582;45.490;7.860;2023-06-05T17:11:43;23.10;67.60
45868;DHT22;31582;45.490;7.860;2023-06-05T17:14:11;23.10;70.50
45868;DHT22;31582;45.490;7.860;2023-06-05T17:16:38;23.00;72.20
45868;DHT22;31582;45.490;7.860;2023-06-05T17:19:05;22.90;72.90
45868;DHT22;31582;45.490;7.860;2023-06-05T17:21:32;22.80;74.30
45868;DHT22;31582;45.490;7.860;2023-06-05T17:24:00;22.70;75.40
45868;DHT22;31582;45.490;7.860;2023-06-05T17:26:27;22.50;77.30
45868;DHT22;31582;45.490;7.860;2023-06-05T17:28:57;22.40;79.00
45868;DHT22;31582;45.490;7.860;2023-06-05T17:31:29;22.30;80.40
45868;DHT22;31582;45.490;7.860;2023-06-05T17:33:56;22.20;83.10
45868;DHT22;31582;45.490;7.860;2023-06-05T17:36:24;22.10;82.80
45868;DHT22;31582;45.490;7.860;2023-06-05T17:38:51;22.00;83.70
45868;DHT22;31582;45.490;7.860;2023-06-05T17:41:18;21.90;85.20
45868;DHT22;31582;45.490;7.860;2023-06-05T17:43:49;21.80;87.70
45868;DHT22;31582;45.490;7.860;2023-06-05T17:46:17;21.70;88.80
45868;DHT22;31582;45.490;7.860;2023-06-05T17:48:45;21.70;90.80
45868;DHT22;31582;45.490;7.860;2023-06-05T17:51:12;21.60;91.20
45868;DHT22;31582;45.490;7.860;2023-06-05T17:53:39;21.60;92.50